Startpagina
METAR-TAF:

METAR-TAF

Vliegvelden :

Rarotonga, Cookeilanden

breedte: 21-12S, lengte: 159-49W, hoogte: 7 m

Actueel weer

Dit bericht is 25 minuten geleden gemaakt, om 17:00 UTC
Wind 2 kt uit het zuidoosten
Temperatuur 26°C
Vochtigheid 94%
Druk 1006 hPa
Zicht 10 km of meer

METAR: NCRG 201700Z AUTO 13002KT 9999 SCT018/// BKN060/// BKN075/// 26/25 Q1006

Tijdstip: 07:25 (17:25 UTC)

Verwachting

Dit bericht is 6 uur en het 13 minuten geleden gemaakt, om 11:12 UTC
Verwachting geldig van 20 om 12 UTC tot 21 om 12 UTC
Wind 5 kt uit het zuidwesten
Zicht 10 km of meer
Weinig wolken op 1800 ft
Verspreide wolken op 3000 ft
Gebroken wolken op 10000 ft
Kans 40% :
Tijdelijke
van 20 om 15 UTC tot 21 om 06 UTC
Zicht: 3000 m
Gebroken wolken op 1500 ft
Weinig wolken op 1800 ft, Cumulonimbus.
onweer, regen

TAF: NCRG 201112Z 2012/2112 23005KT 9999 FEW018 SCT030 BKN100 PROB40 TEMPO 2015/2106 3000 TSRA BKN015 FEW018CB

Waarnemingen en weersverwachtingen van meer dan 4000 vliegvelden (METAR en TAF).

De beschikbare stations zijn de gele en rode punten op de kaart.

Ga met uw muis naar het station om de naam te zien.

Klik dan om waarnemingen en weersverwachtingen te zien.

kaart wijzigen: klik op de groene knoppen met een zwart kruis om in te zoomen, op de groene knop met een streepje om uit te zoomen of op de groene pijlen voor aangrenzende kaarten.


METAR-TAF: